KTUP/TUP METAR and TAF weather

Enter ICAO airport designator
Station Type Date Time Source
KTUP METAR 2019/10/15 18:13 UTC NOAA

KTUP 151813Z 12004KT 10SM BKN008 BKN021 OVC110 20/17 A2998 RMK AO2 T02000172 $


Station Type Date Time Source
KTUP Decoded METAR 2019/10/15 18:13 UTC NOAA

TUPELO REGIONAL AIRPORT, MS, United States (KTUP) 34-16N 88-46W 105M
Oct 15, 2019 - 02:13 PM EDT / 2019.10.15 1813 UTC
Wind: from the ESE (120 degrees) at 5 MPH (4 KT):0
Visibility: 10 mile(s):0
Sky conditions: overcast
Temperature: 68.0 F (20.0 C)
Dew Point: 63.0 F (17.2 C)
Relative Humidity: 83%
Pressure (altimeter): 29.98 in. Hg (1015 hPa)
ob: KTUP 151813Z 12004KT 10SM BKN008 BKN021 OVC110 20/17 A2998 RMK AO2 T02000172
cycle: 18

Station Type Date Time Source
KTUP TAF 2019/10/15 18:36 UTC NOAA

TAF KTUP 151735Z 1518/1618 19007KT P6SM -SHRA SCT009 OVC015
FM151900 18006KT 5SM BR VCSH BKN007 OVC010
FM160100 VRB03KT 3SM BR OVC008
TEMPO 1606/1608 36007KT -SHRA
FM160800 01011G18KT P6SM -SHRA SCT010 BKN025
FM161200 01014G20KT P6SM FEW050

Example: see airport list